createdAt,value
2023-05-11T00:00:44.487Z,5.40
2023-05-11T00:03:50.819Z,6.07
2023-05-11T00:06:57.466Z,5.80
2023-05-11T00:10:03.612Z,4.83
2023-05-11T00:13:11.158Z,5.27
2023-05-11T00:16:17.127Z,5.20
2023-05-11T00:19:23.417Z,5.07
2023-05-11T00:22:30.046Z,6.23
2023-05-11T00:25:36.149Z,5.27
2023-05-11T00:28:43.262Z,5.13
2023-05-11T00:31:50.312Z,5.07
2023-05-11T00:34:56.268Z,6.03
2023-05-11T00:38:02.362Z,5.63
2023-05-11T00:41:08.873Z,5.20
2023-05-11T00:44:16.539Z,5.50
2023-05-11T00:47:22.752Z,5.30
2023-05-11T00:50:29.389Z,5.20
2023-05-11T00:53:35.496Z,6.23
2023-05-11T00:56:41.949Z,5.83
2023-05-11T00:59:50.688Z,6.00
2023-05-11T01:02:59.129Z,5.50
2023-05-11T01:06:11.788Z,4.93
2023-05-11T01:09:33.532Z,5.63
2023-05-11T01:12:49.312Z,5.73
2023-05-11T01:15:57.430Z,5.37
2023-05-11T01:19:12.494Z,5.67
2023-05-11T01:22:32.444Z,4.73
2023-05-11T01:26:03.868Z,5.57
2023-05-11T01:29:29.938Z,5.60
2023-05-11T01:32:41.645Z,6.97
2023-05-11T01:35:55.094Z,6.20
2023-05-11T01:39:04.762Z,6.00
2023-05-11T01:42:11.682Z,5.67
2023-05-11T01:45:20.194Z,5.60
2023-05-11T01:48:32.127Z,5.53
2023-05-11T01:51:39.940Z,5.50
2023-05-11T01:54:48.771Z,5.10
2023-05-11T01:57:57.221Z,5.73
2023-05-11T02:01:04.713Z,5.87
2023-05-11T02:04:14.550Z,5.77
2023-05-11T02:07:22.095Z,5.53
2023-05-11T02:10:29.256Z,5.33
2023-05-11T02:13:37.713Z,5.83
2023-05-11T02:16:45.950Z,6.10
2023-05-11T02:19:54.959Z,5.97
2023-05-11T02:23:02.303Z,5.13
2023-05-11T02:26:09.843Z,5.47
2023-05-11T02:29:16.109Z,5.60
2023-05-11T02:32:25.893Z,5.07
2023-05-11T02:35:37.202Z,4.67
2023-05-11T02:38:45.203Z,4.73
2023-05-11T02:41:57.655Z,5.30
2023-05-11T02:45:09.105Z,5.57
2023-05-11T02:48:26.611Z,6.93
2023-05-11T02:51:37.795Z,5.33
2023-05-11T02:54:44.523Z,5.40
2023-05-11T02:57:50.997Z,5.63
2023-05-11T03:00:57.622Z,6.97
2023-05-11T03:04:05.867Z,5.60
2023-05-11T03:07:13.585Z,5.37
2023-05-11T03:10:20.100Z,5.43
2023-05-11T03:13:27.242Z,5.10
2023-05-11T03:16:34.618Z,5.93
2023-05-11T03:19:42.760Z,5.40
2023-05-11T03:22:51.270Z,5.17
2023-05-11T03:25:58.920Z,5.40
2023-05-11T03:29:05.856Z,6.70
2023-05-11T03:32:12.057Z,6.50
2023-05-11T03:35:18.852Z,6.07
2023-05-11T03:38:30.894Z,5.13
2023-05-11T03:41:40.534Z,4.40
2023-05-11T03:44:49.626Z,5.53
2023-05-11T03:47:57.704Z,5.97
2023-05-11T03:51:05.915Z,4.80
2023-05-11T03:54:14.360Z,4.50
2023-05-11T03:57:20.178Z,4.83
2023-05-11T04:00:26.104Z,5.50
2023-05-11T04:03:32.122Z,4.77
2023-05-11T04:06:38.191Z,5.77
2023-05-11T04:09:45.547Z,4.27
2023-05-11T04:12:53.094Z,5.37
2023-05-11T04:15:59.480Z,7.03
2023-05-11T04:19:06.534Z,7.40
2023-05-11T04:22:13.307Z,9.50
2023-05-11T04:25:21.110Z,6.53
2023-05-11T04:28:28.098Z,4.93
2023-05-11T04:31:34.936Z,4.47
2023-05-11T04:34:42.846Z,6.17
2023-05-11T04:37:48.824Z,6.03
2023-05-11T04:40:56.106Z,6.37
2023-05-11T04:44:02.253Z,7.77
2023-05-11T04:47:08.440Z,7.17
2023-05-11T04:50:14.945Z,7.80
2023-05-11T04:53:20.912Z,7.83
2023-05-11T04:56:28.279Z,6.80
2023-05-11T04:59:34.767Z,7.60
2023-05-11T05:02:41.032Z,7.33
2023-05-11T05:05:47.135Z,7.77
2023-05-11T05:08:53.219Z,7.57
2023-05-11T05:12:01.725Z,12.27
2023-05-11T05:15:09.288Z,9.03
2023-05-11T05:18:15.213Z,6.73
2023-05-11T05:21:21.325Z,9.60
2023-05-11T05:24:27.393Z,6.77
2023-05-11T05:27:35.234Z,6.13
2023-05-11T05:30:41.606Z,4.77
2023-05-11T05:33:47.504Z,6.80
2023-05-11T05:36:53.780Z,5.57
2023-05-11T05:40:00.270Z,5.83
2023-05-11T05:43:07.664Z,5.30
2023-05-11T05:46:14.165Z,5.23
2023-05-11T05:49:20.166Z,4.83
2023-05-11T05:52:26.542Z,5.00
2023-05-11T05:55:32.515Z,4.23
2023-05-11T05:58:39.796Z,4.73
2023-05-11T06:01:47.574Z,4.60
2023-05-11T06:04:53.896Z,4.90
2023-05-11T06:08:09.665Z,5.97
2023-05-11T06:11:17.332Z,5.30
2023-05-11T06:14:25.046Z,4.47
2023-05-11T06:17:31.628Z,4.63
2023-05-11T06:20:37.651Z,4.40
2023-05-11T06:23:44.315Z,5.07
2023-05-11T06:26:50.205Z,4.07
2023-05-11T06:29:57.696Z,4.77
2023-05-11T06:33:03.739Z,5.47
2023-05-11T06:36:10.199Z,5.77
2023-05-11T06:39:16.366Z,5.20
2023-05-11T06:42:23.687Z,6.63
2023-05-11T06:45:31.161Z,4.97
2023-05-11T06:48:37.322Z,4.50
2023-05-11T06:51:43.548Z,4.07
2023-05-11T06:54:49.486Z,4.53
2023-05-11T06:57:55.814Z,4.70
2023-05-11T07:01:05.924Z,5.10
2023-05-11T07:04:12.087Z,5.90
2023-05-11T07:07:18.363Z,5.97
2023-05-11T07:10:24.628Z,4.70
2023-05-11T07:13:31.025Z,5.00
2023-05-11T07:16:38.824Z,6.33
2023-05-11T07:19:45.473Z,4.33
2023-05-11T07:22:51.877Z,4.70
2023-05-11T07:25:58.293Z,4.87
2023-05-11T07:29:04.422Z,4.20
2023-05-11T07:32:11.865Z,4.53
2023-05-11T07:35:18.397Z,5.10
2023-05-11T07:38:24.398Z,8.93
2023-05-11T07:41:30.996Z,4.53
2023-05-11T07:44:37.155Z,4.93
2023-05-11T07:47:45.285Z,5.80
2023-05-11T07:50:51.565Z,6.23
2023-05-11T07:53:57.842Z,4.60
2023-05-11T07:57:05.162Z,4.10
2023-05-11T08:00:12.607Z,6.27
2023-05-11T08:03:20.423Z,5.17
2023-05-11T08:06:26.679Z,4.10
2023-05-11T08:09:33.027Z,6.30
2023-05-11T08:12:39.757Z,5.07
2023-05-11T08:15:45.729Z,5.40
2023-05-11T08:18:53.387Z,5.93
2023-05-11T08:21:59.787Z,6.53
2023-05-11T08:25:06.492Z,4.20
2023-05-11T08:28:12.666Z,5.73
2023-05-11T08:31:18.986Z,7.07
2023-05-11T08:34:26.702Z,7.13
2023-05-11T08:37:32.746Z,6.23
2023-05-11T08:40:40.359Z,5.53
2023-05-11T08:43:47.601Z,6.47
2023-05-11T08:47:08.581Z,7.40
2023-05-11T08:50:23.819Z,7.20
2023-05-11T08:53:29.835Z,15.77
2023-05-11T08:56:37.624Z,8.83
2023-05-11T08:59:46.387Z,5.93
2023-05-11T09:02:53.707Z,5.87
2023-05-11T09:06:02.449Z,9.50
2023-05-11T09:09:10.264Z,7.17
2023-05-11T09:12:18.036Z,7.70
2023-05-11T09:15:24.571Z,6.73
2023-05-11T09:18:31.058Z,6.87
2023-05-11T09:21:40.091Z,6.33
2023-05-11T09:24:46.605Z,6.70
2023-05-11T09:27:53.692Z,4.93
2023-05-11T09:31:00.443Z,4.40
2023-05-11T09:34:11.804Z,4.33
2023-05-11T09:37:20.356Z,5.03
2023-05-11T09:40:27.596Z,5.53
2023-05-11T09:43:33.796Z,5.60
2023-05-11T09:46:40.711Z,6.13
2023-05-11T09:49:48.178Z,6.70
2023-05-11T09:52:56.006Z,6.07
2023-05-11T09:56:02.595Z,4.57
2023-05-11T09:59:08.828Z,4.70
2023-05-11T10:02:24.067Z,4.83
2023-05-11T10:05:32.568Z,4.63
2023-05-11T10:08:40.689Z,4.60
2023-05-11T10:11:48.160Z,5.23
2023-05-11T10:14:57.306Z,4.37
2023-05-11T10:18:03.688Z,4.30
2023-05-11T10:21:10.357Z,4.33
2023-05-11T10:24:20.407Z,5.00
2023-05-11T10:27:29.175Z,4.83
2023-05-11T10:30:37.305Z,5.43
2023-05-11T10:33:44.590Z,5.13
2023-05-11T10:36:53.370Z,6.07
2023-05-11T10:40:01.200Z,5.00
2023-05-11T10:43:44.384Z,5.30
2023-05-11T10:47:10.831Z,4.90
2023-05-11T10:50:37.798Z,4.30
2023-05-11T10:53:59.689Z,4.13
2023-05-11T10:57:16.883Z,4.30
2023-05-11T11:01:14.157Z,4.83
2023-05-11T11:04:20.622Z,3.87
2023-05-11T11:07:26.725Z,5.63
2023-05-11T11:10:34.802Z,4.40
2023-05-11T11:14:01.928Z,4.37
2023-05-11T11:17:25.119Z,4.13
2023-05-11T11:20:50.867Z,4.50
2023-05-11T11:23:57.049Z,4.17
2023-05-11T11:27:03.224Z,4.77
2023-05-11T11:30:19.528Z,3.83
2023-05-11T11:33:35.782Z,3.63
2023-05-11T11:37:06.453Z,4.50
2023-05-11T11:40:15.741Z,3.97
2023-05-11T11:43:24.802Z,4.30
2023-05-11T11:46:32.179Z,5.90
2023-05-11T11:49:39.387Z,5.63
2023-05-11T11:52:45.582Z,6.03
2023-05-11T11:55:52.771Z,4.47
2023-05-11T11:58:59.875Z,4.10
2023-05-11T12:02:09.071Z,3.43
2023-05-11T12:05:18.956Z,3.90
2023-05-11T12:08:27.811Z,4.17
2023-05-11T12:11:34.470Z,4.23
2023-05-11T12:14:49.006Z,4.47
2023-05-11T12:17:57.647Z,3.90
2023-05-11T12:21:04.198Z,4.27
2023-05-11T12:24:13.269Z,4.50
2023-05-11T12:27:19.873Z,4.40
2023-05-11T12:30:28.117Z,4.47
2023-05-11T12:33:45.797Z,5.00
2023-05-11T12:36:53.504Z,3.73
2023-05-11T12:40:00.466Z,3.20
2023-05-11T12:43:06.954Z,3.97
2023-05-11T12:46:13.528Z,3.47
2023-05-11T12:52:30.874Z,3.73
2023-05-11T12:55:37.297Z,4.40
2023-05-11T12:58:43.681Z,3.63
2023-05-11T13:01:49.807Z,3.80
2023-05-11T13:04:57.230Z,3.57
2023-05-11T13:08:04.770Z,4.20
2023-05-11T13:11:22.486Z,4.23
2023-05-11T13:14:32.473Z,3.87
2023-05-11T13:17:39.418Z,2.57
2023-05-11T13:20:46.775Z,3.83
2023-05-11T13:23:54.520Z,3.77
2023-05-11T13:27:00.979Z,3.50
2023-05-11T13:30:08.497Z,3.83
2023-05-11T13:33:14.572Z,3.47
2023-05-11T13:36:23.183Z,3.73
2023-05-11T13:39:29.326Z,4.03
2023-05-11T13:42:35.437Z,3.47
2023-05-11T13:45:41.887Z,3.80
2023-05-11T13:48:47.918Z,6.43
2023-05-11T13:51:55.671Z,3.77
2023-05-11T13:55:01.866Z,3.90
2023-05-11T13:58:08.399Z,3.43
2023-05-11T14:01:14.526Z,4.40
2023-05-11T14:04:20.616Z,3.33
2023-05-11T14:07:39.118Z,3.20
2023-05-11T14:10:53.191Z,3.23
2023-05-11T14:13:59.284Z,4.00
2023-05-11T14:17:05.525Z,7.50
2023-05-11T14:20:12.813Z,8.40
2023-05-11T14:23:20.700Z,4.00
2023-05-11T14:26:26.807Z,4.90
2023-05-11T14:29:32.829Z,3.93
2023-05-11T14:32:38.896Z,3.80
2023-05-11T14:35:45.723Z,4.67
2023-05-11T14:38:53.494Z,3.63
2023-05-11T14:41:59.741Z,3.43
2023-05-11T14:45:07.072Z,3.83
2023-05-11T14:48:13.334Z,3.53
2023-05-11T14:51:21.963Z,4.03
2023-05-11T14:54:29.518Z,4.00
2023-05-11T14:57:35.789Z,4.60
2023-05-11T15:00:42.110Z,9.23
2023-05-11T15:03:48.179Z,8.87
2023-05-11T15:06:54.173Z,5.60
2023-05-11T15:10:02.351Z,4.40
2023-05-11T15:13:10.569Z,4.80
2023-05-11T15:16:17.078Z,4.23
2023-05-11T15:19:23.312Z,3.83
2023-05-11T15:22:29.299Z,4.53
2023-05-11T15:25:36.960Z,6.37
2023-05-11T15:28:43.024Z,7.87
2023-05-11T15:31:49.258Z,6.13
2023-05-11T15:34:59.684Z,5.30
2023-05-11T15:38:06.800Z,7.33
2023-05-11T15:41:14.641Z,8.03
2023-05-11T15:44:20.890Z,4.67
2023-05-11T15:47:27.350Z,6.23
2023-05-11T15:50:33.804Z,6.17
2023-05-11T15:53:39.706Z,8.90
2023-05-11T15:56:47.314Z,9.33
2023-05-11T15:59:53.300Z,9.53
2023-05-11T16:02:59.251Z,10.23
2023-05-11T16:06:06.235Z,13.43
2023-05-11T16:09:12.602Z,12.50
2023-05-11T16:12:19.897Z,11.33
2023-05-11T16:15:26.594Z,9.60
2023-05-11T16:18:32.592Z,9.90
2023-05-11T16:21:38.820Z,11.30
2023-05-11T16:24:45.261Z,11.47
2023-05-11T16:27:52.950Z,11.40
2023-05-11T16:30:59.529Z,12.10
2023-05-11T16:34:05.801Z,13.70
2023-05-11T16:37:11.625Z,12.83
2023-05-11T16:40:19.733Z,9.40
2023-05-11T16:43:27.265Z,8.73
2023-05-11T16:46:33.635Z,8.00
2023-05-11T16:49:40.059Z,14.43
2023-05-11T16:52:46.073Z,25.23
2023-05-11T16:55:52.222Z,11.63
2023-05-11T16:58:59.668Z,22.50
2023-05-11T17:02:07.561Z,7.67
2023-05-11T17:05:14.519Z,10.27
2023-05-11T17:08:20.798Z,8.87
2023-05-11T17:11:27.051Z,9.50
2023-05-11T17:14:34.324Z,7.27
2023-05-11T17:17:41.345Z,8.00
2023-05-11T17:20:53.437Z,10.57
2023-05-11T17:23:59.770Z,11.87
2023-05-11T17:27:06.280Z,11.30
2023-05-11T17:30:14.495Z,13.43
2023-05-11T17:33:21.032Z,40.97
2023-05-11T17:36:29.461Z,24.27
2023-05-11T17:39:35.838Z,19.80
2023-05-11T17:42:42.184Z,14.80
2023-05-11T17:45:50.282Z,13.00
2023-05-11T17:48:56.848Z,11.97
2023-05-11T17:52:03.472Z,11.83
2023-05-11T17:55:11.111Z,14.67
2023-05-11T17:58:17.353Z,15.23
2023-05-11T18:01:25.418Z,12.13
2023-05-11T18:04:31.845Z,10.30
2023-05-11T18:07:37.908Z,10.33
2023-05-11T18:10:44.471Z,11.20
2023-05-11T18:13:51.137Z,10.27
2023-05-11T18:16:58.669Z,11.53
2023-05-11T18:20:06.401Z,7.97
2023-05-11T18:23:12.697Z,8.97
2023-05-11T18:26:20.244Z,8.23
2023-05-11T18:29:27.121Z,9.13
2023-05-11T18:32:34.891Z,8.93
2023-05-11T18:35:42.299Z,9.70
2023-05-11T18:38:49.423Z,10.67
2023-05-11T18:41:56.019Z,11.23
2023-05-11T18:45:02.254Z,8.90
2023-05-11T18:48:10.017Z,8.23
2023-05-11T18:51:19.008Z,11.23
2023-05-11T18:54:25.566Z,8.77
2023-05-11T18:57:34.158Z,11.10
2023-05-11T19:00:40.671Z,10.03
2023-05-11T19:03:48.209Z,10.07
2023-05-11T19:06:54.588Z,14.17
2023-05-11T19:10:00.880Z,13.13
2023-05-11T19:13:07.021Z,12.00
2023-05-11T19:16:13.026Z,13.23
2023-05-11T19:19:20.590Z,14.77
2023-05-11T19:22:26.838Z,14.00
2023-05-11T19:25:33.092Z,9.13
2023-05-11T19:28:39.430Z,11.43
2023-05-11T19:31:46.063Z,10.77
2023-05-11T19:34:54.053Z,11.33
2023-05-11T19:38:00.280Z,11.53
2023-05-11T19:41:06.975Z,11.67
2023-05-11T19:44:13.418Z,9.10
2023-05-11T19:47:19.545Z,11.43
2023-05-11T19:50:27.804Z,12.50
2023-05-11T19:53:34.397Z,10.73
2023-05-11T19:56:40.553Z,11.87
2023-05-11T19:59:46.717Z,10.27
2023-05-11T20:02:52.965Z,8.00
2023-05-11T20:06:00.389Z,8.20
2023-05-11T20:09:07.336Z,7.00
2023-05-11T20:12:13.131Z,10.00
2023-05-11T20:15:19.836Z,12.77
2023-05-11T20:18:28.225Z,11.33
2023-05-11T20:21:36.452Z,9.17
2023-05-11T20:24:42.320Z,7.97
2023-05-11T20:27:48.309Z,7.23
2023-05-11T20:30:54.357Z,8.00
2023-05-11T20:37:11.242Z,9.63
2023-05-11T20:40:18.661Z,6.00
2023-05-11T20:43:26.142Z,7.80
2023-05-11T20:46:32.524Z,6.47
2023-05-11T20:49:39.518Z,7.40
2023-05-11T20:52:47.178Z,8.03
2023-05-11T20:55:53.320Z,7.23
2023-05-11T20:58:59.601Z,8.73
2023-05-11T21:02:06.501Z,7.77
2023-05-11T21:05:13.002Z,7.80
2023-05-11T21:08:20.682Z,7.93
2023-05-11T21:11:27.444Z,7.03
2023-05-11T21:14:33.906Z,7.40
2023-05-11T21:17:40.154Z,7.03
2023-05-11T21:20:46.212Z,7.17
2023-05-11T21:23:53.647Z,13.87
2023-05-11T21:26:59.947Z,19.20
2023-05-11T21:30:07.008Z,18.27
2023-05-11T21:33:13.396Z,14.77
2023-05-11T21:36:19.586Z,7.40
2023-05-11T21:39:26.987Z,8.17
2023-05-11T21:42:36.173Z,6.50
2023-05-11T21:45:42.574Z,5.60
2023-05-11T21:48:48.820Z,6.93
2023-05-11T21:51:54.943Z,6.73
2023-05-11T21:55:02.503Z,7.87
2023-05-11T21:58:09.073Z,6.43
2023-05-11T22:01:15.210Z,6.87
2023-05-11T22:04:21.851Z,6.43
2023-05-11T22:07:28.056Z,6.63
2023-05-11T22:10:35.794Z,6.90
2023-05-11T22:13:44.808Z,6.80
2023-05-11T22:16:51.259Z,6.57
2023-05-11T22:19:57.582Z,6.33
2023-05-11T22:23:04.650Z,5.03
2023-05-11T22:26:12.496Z,6.40
2023-05-11T22:29:19.089Z,5.50
2023-05-11T22:32:25.459Z,5.30
2023-05-11T22:35:31.357Z,5.63
2023-05-11T22:38:38.280Z,6.30
2023-05-11T22:41:46.233Z,5.80
2023-05-11T22:44:52.476Z,6.17
2023-05-11T22:47:58.761Z,6.63
2023-05-11T22:51:06.483Z,6.13
2023-05-11T22:54:13.387Z,6.10
2023-05-11T22:57:20.865Z,5.90
2023-05-11T23:00:27.570Z,5.57
2023-05-11T23:03:33.788Z,5.63
2023-05-11T23:06:39.815Z,6.43
2023-05-11T23:09:46.107Z,6.13
2023-05-11T23:12:53.563Z,6.00
2023-05-11T23:15:59.730Z,5.73
2023-05-11T23:19:05.898Z,5.83
2023-05-11T23:22:12.033Z,6.03
2023-05-11T23:25:18.529Z,5.73
2023-05-11T23:28:26.390Z,5.93
2023-05-11T23:31:32.787Z,5.90
2023-05-11T23:34:39.391Z,6.07
2023-05-11T23:37:45.374Z,5.73
2023-05-11T23:40:52.552Z,6.40
2023-05-11T23:44:00.678Z,5.70
2023-05-11T23:47:07.185Z,6.77
2023-05-11T23:50:14.152Z,5.43
2023-05-11T23:53:20.337Z,6.13
2023-05-11T23:56:26.494Z,7.40
2023-05-11T23:59:33.816Z,6.43
